sensor_id;sensor_type;location;lat;lon;timestamp;P1;durP1;ratioP1;P2;durP2;ratioP2
46455;SDS011;64052;47.466;9.094;2023-04-24T00:04:14;0.90;;;0.82;;
46455;SDS011;64052;47.466;9.094;2023-04-24T00:09:16;1.63;;;1.00;;
46455;SDS011;64052;47.466;9.094;2023-04-24T00:14:17;0.95;;;0.88;;
46455;SDS011;64052;47.466;9.094;2023-04-24T00:19:19;1.25;;;1.15;;
46455;SDS011;64052;47.466;9.094;2023-04-24T00:24:20;1.23;;;0.80;;
46455;SDS011;64052;47.466;9.094;2023-04-24T00:29:22;1.77;;;1.33;;
46455;SDS011;64052;47.466;9.094;2023-04-24T00:34:23;2.42;;;1.75;;
46455;SDS011;64052;47.466;9.094;2023-04-24T00:39:25;2.17;;;0.90;;
46455;SDS011;64052;47.466;9.094;2023-04-24T00:44:27;1.48;;;1.05;;
46455;SDS011;64052;47.466;9.094;2023-04-24T00:49:29;1.05;;;0.90;;
46455;SDS011;64052;47.466;9.094;2023-04-24T00:54:31;2.13;;;1.20;;
46455;SDS011;64052;47.466;9.094;2023-04-24T00:59:33;1.20;;;1.10;;
46455;SDS011;64052;47.466;9.094;2023-04-24T01:04:35;1.20;;;1.10;;
46455;SDS011;64052;47.466;9.094;2023-04-24T01:09:38;0.95;;;0.90;;
46455;SDS011;64052;47.466;9.094;2023-04-24T01:14:42;1.77;;;1.67;;
46455;SDS011;64052;47.466;9.094;2023-04-24T01:19:43;1.25;;;1.15;;
46455;SDS011;64052;47.466;9.094;2023-04-24T01:24:45;1.17;;;0.90;;
46455;SDS011;64052;47.466;9.094;2023-04-24T01:29:47;1.45;;;0.82;;
46455;SDS011;64052;47.466;9.094;2023-04-24T01:34:49;0.88;;;0.88;;
46455;SDS011;64052;47.466;9.094;2023-04-24T01:39:50;1.30;;;1.20;;
46455;SDS011;64052;47.466;9.094;2023-04-24T01:44:52;0.77;;;0.70;;
46455;SDS011;64052;47.466;9.094;2023-04-24T01:49:54;0.70;;;0.70;;
46455;SDS011;64052;47.466;9.094;2023-04-24T01:54:56;0.80;;;0.80;;
46455;SDS011;64052;47.466;9.094;2023-04-24T02:00:00;0.70;;;0.70;;
46455;SDS011;64052;47.466;9.094;2023-04-24T02:05:02;0.95;;;0.95;;
46455;SDS011;64052;47.466;9.094;2023-04-24T02:10:10;1.35;;;0.82;;
46455;SDS011;64052;47.466;9.094;2023-04-24T02:15:16;0.80;;;0.80;;
46455;SDS011;64052;47.466;9.094;2023-04-24T02:20:17;0.90;;;0.90;;
46455;SDS011;64052;47.466;9.094;2023-04-24T02:25:19;0.70;;;0.70;;
46455;SDS011;64052;47.466;9.094;2023-04-24T02:30:20;1.85;;;0.80;;
46455;SDS011;64052;47.466;9.094;2023-04-24T02:35:22;1.08;;;0.80;;
46455;SDS011;64052;47.466;9.094;2023-04-24T02:40:24;0.60;;;0.60;;
46455;SDS011;64052;47.466;9.094;2023-04-24T02:45:26;0.73;;;0.73;;
46455;SDS011;64052;47.466;9.094;2023-04-24T02:50:27;1.17;;;1.17;;
46455;SDS011;64052;47.466;9.094;2023-04-24T02:55:29;0.80;;;0.80;;
46455;SDS011;64052;47.466;9.094;2023-04-24T03:00:30;0.63;;;0.63;;
46455;SDS011;64052;47.466;9.094;2023-04-24T03:05:32;1.05;;;0.80;;
46455;SDS011;64052;47.466;9.094;2023-04-24T03:10:33;1.02;;;0.70;;
46455;SDS011;64052;47.466;9.094;2023-04-24T03:15:35;0.80;;;0.80;;
46455;SDS011;64052;47.466;9.094;2023-04-24T03:20:36;0.70;;;0.70;;
46455;SDS011;64052;47.466;9.094;2023-04-24T03:25:38;0.88;;;0.70;;
46455;SDS011;64052;47.466;9.094;2023-04-24T03:30:40;0.90;;;0.90;;
46455;SDS011;64052;47.466;9.094;2023-04-24T03:35:43;0.90;;;0.90;;
46455;SDS011;64052;47.466;9.094;2023-04-24T03:40:46;0.80;;;0.80;;
46455;SDS011;64052;47.466;9.094;2023-04-24T03:46:05;0.75;;;0.75;;
46455;SDS011;64052;47.466;9.094;2023-04-24T03:51:11;0.85;;;0.85;;
46455;SDS011;64052;47.466;9.094;2023-04-24T03:56:16;0.70;;;0.70;;
46455;SDS011;64052;47.466;9.094;2023-04-24T04:01:18;0.75;;;0.75;;
46455;SDS011;64052;47.466;9.094;2023-04-24T04:06:25;0.77;;;0.77;;
46455;SDS011;64052;47.466;9.094;2023-04-24T04:11:29;1.85;;;0.80;;
46455;SDS011;64052;47.466;9.094;2023-04-24T04:16:31;1.27;;;0.73;;
46455;SDS011;64052;47.466;9.094;2023-04-24T04:21:36;0.70;;;0.70;;
46455;SDS011;64052;47.466;9.094;2023-04-24T04:26:57;0.70;;;0.70;;
46455;SDS011;64052;47.466;9.094;2023-04-24T04:32:03;0.60;;;0.60;;
46455;SDS011;64052;47.466;9.094;2023-04-24T04:37:05;0.60;;;0.60;;
46455;SDS011;64052;47.466;9.094;2023-04-24T04:42:16;0.70;;;0.70;;
46455;SDS011;64052;47.466;9.094;2023-04-24T04:47:18;0.60;;;0.60;;
46455;SDS011;64052;47.466;9.094;2023-04-24T04:52:24;1.15;;;0.70;;
46455;SDS011;64052;47.466;9.094;2023-04-24T04:57:31;0.70;;;0.70;;
46455;SDS011;64052;47.466;9.094;2023-04-24T05:02:33;1.00;;;0.70;;
46455;SDS011;64052;47.466;9.094;2023-04-24T05:07:35;0.70;;;0.70;;
46455;SDS011;64052;47.466;9.094;2023-04-24T05:12:39;0.60;;;0.60;;
46455;SDS011;64052;47.466;9.094;2023-04-24T05:17:41;0.68;;;0.68;;
46455;SDS011;64052;47.466;9.094;2023-04-24T05:22:44;0.80;;;0.80;;
46455;SDS011;64052;47.466;9.094;2023-04-24T05:27:47;0.70;;;0.70;;
46455;SDS011;64052;47.466;9.094;2023-04-24T05:32:52;1.35;;;0.60;;
46455;SDS011;64052;47.466;9.094;2023-04-24T05:37:54;0.60;;;0.60;;
46455;SDS011;64052;47.466;9.094;2023-04-24T05:42:55;0.80;;;0.80;;
46455;SDS011;64052;47.466;9.094;2023-04-24T05:47:58;1.38;;;1.27;;
46455;SDS011;64052;47.466;9.094;2023-04-24T05:53:00;1.38;;;1.17;;
46455;SDS011;64052;47.466;9.094;2023-04-24T05:58:04;0.93;;;0.93;;
46455;SDS011;64052;47.466;9.094;2023-04-24T06:03:07;3.80;;;1.75;;
46455;SDS011;64052;47.466;9.094;2023-04-24T06:08:09;3.15;;;2.15;;
46455;SDS011;64052;47.466;9.094;2023-04-24T06:13:16;1.75;;;1.25;;
46455;SDS011;64052;47.466;9.094;2023-04-24T06:18:33;2.40;;;1.63;;
46455;SDS011;64052;47.466;9.094;2023-04-24T06:23:34;1.90;;;1.75;;
46455;SDS011;64052;47.466;9.094;2023-04-24T06:28:36;2.08;;;1.50;;
46455;SDS011;64052;47.466;9.094;2023-04-24T06:33:37;1.40;;;1.30;;
46455;SDS011;64052;47.466;9.094;2023-04-24T06:38:39;1.90;;;1.70;;
46455;SDS011;64052;47.466;9.094;2023-04-24T06:43:40;2.10;;;1.90;;
46455;SDS011;64052;47.466;9.094;2023-04-24T06:48:42;2.35;;;1.52;;
46455;SDS011;64052;47.466;9.094;2023-04-24T06:53:43;2.70;;;2.50;;
46455;SDS011;64052;47.466;9.094;2023-04-24T06:58:46;2.10;;;1.90;;
46455;SDS011;64052;47.466;9.094;2023-04-24T07:03:48;3.53;;;2.50;;
46455;SDS011;64052;47.466;9.094;2023-04-24T07:08:49;3.33;;;2.35;;
46455;SDS011;64052;47.466;9.094;2023-04-24T07:13:51;2.35;;;2.15;;
46455;SDS011;64052;47.466;9.094;2023-04-24T07:18:52;2.50;;;1.85;;
46455;SDS011;64052;47.466;9.094;2023-04-24T07:23:54;1.70;;;1.48;;
46455;SDS011;64052;47.466;9.094;2023-04-24T07:28:55;1.65;;;1.50;;
46455;SDS011;64052;47.466;9.094;2023-04-24T07:33:57;2.13;;;1.10;;
46455;SDS011;64052;47.466;9.094;2023-04-24T07:38:58;1.25;;;1.15;;
46455;SDS011;64052;47.466;9.094;2023-04-24T07:44:00;2.97;;;1.38;;
46455;SDS011;64052;47.466;9.094;2023-04-24T07:49:01;1.25;;;1.15;;
46455;SDS011;64052;47.466;9.094;2023-04-24T07:54:14;1.63;;;1.30;;
46455;SDS011;64052;47.466;9.094;2023-04-24T07:59:15;1.35;;;1.17;;
46455;SDS011;64052;47.466;9.094;2023-04-24T08:04:17;1.48;;;1.20;;
46455;SDS011;64052;47.466;9.094;2023-04-24T08:09:18;1.58;;;1.48;;
46455;SDS011;64052;47.466;9.094;2023-04-24T08:14:20;1.77;;;1.65;;
46455;SDS011;64052;47.466;9.094;2023-04-24T08:19:21;1.80;;;1.50;;
46455;SDS011;64052;47.466;9.094;2023-04-24T08:24:23;2.80;;;1.40;;
46455;SDS011;64052;47.466;9.094;2023-04-24T08:29:24;1.40;;;1.30;;
46455;SDS011;64052;47.466;9.094;2023-04-24T08:34:26;1.95;;;1.75;;
46455;SDS011;64052;47.466;9.094;2023-04-24T08:39:27;3.45;;;1.85;;
46455;SDS011;64052;47.466;9.094;2023-04-24T08:44:29;3.10;;;2.05;;
46455;SDS011;64052;47.466;9.094;2023-04-24T08:49:31;3.92;;;1.90;;
46455;SDS011;64052;47.466;9.094;2023-04-24T08:54:34;2.38;;;2.17;;
46455;SDS011;64052;47.466;9.094;2023-04-24T08:59:36;5.43;;;2.90;;
46455;SDS011;64052;47.466;9.094;2023-04-24T09:04:40;3.10;;;2.35;;
46455;SDS011;64052;47.466;9.094;2023-04-24T09:09:42;2.92;;;2.30;;
46455;SDS011;64052;47.466;9.094;2023-04-24T09:14:45;2.88;;;2.25;;
46455;SDS011;64052;47.466;9.094;2023-04-24T09:19:47;3.90;;;2.72;;
46455;SDS011;64052;47.466;9.094;2023-04-24T09:24:48;6.70;;;3.60;;
46455;SDS011;64052;47.466;9.094;2023-04-24T09:30:02;3.30;;;2.83;;
46455;SDS011;64052;47.466;9.094;2023-04-24T09:35:05;4.57;;;2.88;;
46455;SDS011;64052;47.466;9.094;2023-04-24T09:45:17;3.90;;;3.42;;
46455;SDS011;64052;47.466;9.094;2023-04-24T09:50:19;3.90;;;3.15;;
46455;SDS011;64052;47.466;9.094;2023-04-24T09:55:22;5.85;;;4.28;;
46455;SDS011;64052;47.466;9.094;2023-04-24T10:00:25;4.00;;;3.08;;
46455;SDS011;64052;47.466;9.094;2023-04-24T10:05:39;4.35;;;3.03;;
46455;SDS011;64052;47.466;9.094;2023-04-24T10:10:42;4.03;;;3.00;;
46455;SDS011;64052;47.466;9.094;2023-04-24T10:15:45;5.25;;;3.20;;
46455;SDS011;64052;47.466;9.094;2023-04-24T10:20:50;4.85;;;3.30;;
46455;SDS011;64052;47.466;9.094;2023-04-24T10:25:51;8.27;;;3.45;;
46455;SDS011;64052;47.466;9.094;2023-04-24T10:30:54;4.50;;;2.67;;
46455;SDS011;64052;47.466;9.094;2023-04-24T10:35:56;3.05;;;2.55;;
46455;SDS011;64052;47.466;9.094;2023-04-24T10:41:10;2.95;;;2.28;;
46455;SDS011;64052;47.466;9.094;2023-04-24T10:46:16;3.50;;;2.80;;
46455;SDS011;64052;47.466;9.094;2023-04-24T10:51:24;3.80;;;2.45;;
46455;SDS011;64052;47.466;9.094;2023-04-24T10:56:43;4.20;;;2.40;;
46455;SDS011;64052;47.466;9.094;2023-04-24T11:01:45;3.70;;;2.42;;
46455;SDS011;64052;47.466;9.094;2023-04-24T11:06:54;3.88;;;2.05;;
46455;SDS011;64052;47.466;9.094;2023-04-24T11:12:02;3.78;;;2.22;;
46455;SDS011;64052;47.466;9.094;2023-04-24T11:17:06;3.97;;;2.60;;
46455;SDS011;64052;47.466;9.094;2023-04-24T11:22:14;4.90;;;3.13;;
46455;SDS011;64052;47.466;9.094;2023-04-24T11:27:16;4.45;;;2.28;;
46455;SDS011;64052;47.466;9.094;2023-04-24T11:37:44;2.63;;;2.03;;
46455;SDS011;64052;47.466;9.094;2023-04-24T11:43:09;5.70;;;2.47;;
46455;SDS011;64052;47.466;9.094;2023-04-24T11:48:11;5.65;;;2.58;;
46455;SDS011;64052;47.466;9.094;2023-04-24T11:53:13;3.17;;;2.20;;
46455;SDS011;64052;47.466;9.094;2023-04-24T11:58:14;2.50;;;2.30;;
46455;SDS011;64052;47.466;9.094;2023-04-24T12:03:16;3.03;;;2.60;;
46455;SDS011;64052;47.466;9.094;2023-04-24T12:08:27;4.43;;;2.38;;
46455;SDS011;64052;47.466;9.094;2023-04-24T12:13:29;2.80;;;2.58;;
46455;SDS011;64052;47.466;9.094;2023-04-24T12:18:31;4.40;;;2.10;;
46455;SDS011;64052;47.466;9.094;2023-04-24T12:23:33;2.13;;;1.70;;
46455;SDS011;64052;47.466;9.094;2023-04-24T12:28:35;4.43;;;2.90;;
46455;SDS011;64052;47.466;9.094;2023-04-24T12:33:39;3.17;;;2.33;;
46455;SDS011;64052;47.466;9.094;2023-04-24T12:38:43;3.10;;;2.17;;
46455;SDS011;64052;47.466;9.094;2023-04-24T12:43:51;2.15;;;1.95;;
46455;SDS011;64052;47.466;9.094;2023-04-24T12:48:54;2.65;;;2.20;;
46455;SDS011;64052;47.466;9.094;2023-04-24T12:53:55;3.65;;;2.72;;
46455;SDS011;64052;47.466;9.094;2023-04-24T12:58:57;3.58;;;2.60;;
46455;SDS011;64052;47.466;9.094;2023-04-24T13:03:58;3.22;;;2.55;;
46455;SDS011;64052;47.466;9.094;2023-04-24T13:09:00;2.38;;;2.05;;
46455;SDS011;64052;47.466;9.094;2023-04-24T13:14:01;4.50;;;3.20;;
46455;SDS011;64052;47.466;9.094;2023-04-24T13:19:03;2.15;;;1.73;;
46455;SDS011;64052;47.466;9.094;2023-04-24T13:24:04;3.05;;;1.85;;
46455;SDS011;64052;47.466;9.094;2023-04-24T13:29:06;3.65;;;2.55;;
46455;SDS011;64052;47.466;9.094;2023-04-24T13:34:07;3.45;;;2.05;;
46455;SDS011;64052;47.466;9.094;2023-04-24T13:39:09;3.92;;;2.20;;
46455;SDS011;64052;47.466;9.094;2023-04-24T13:44:10;3.08;;;1.85;;
46455;SDS011;64052;47.466;9.094;2023-04-24T13:49:12;2.00;;;1.80;;
46455;SDS011;64052;47.466;9.094;2023-04-24T13:54:14;3.75;;;1.77;;
46455;SDS011;64052;47.466;9.094;2023-04-24T13:59:16;2.05;;;1.65;;
46455;SDS011;64052;47.466;9.094;2023-04-24T14:04:17;4.38;;;2.28;;
46455;SDS011;64052;47.466;9.094;2023-04-24T14:09:19;2.78;;;2.00;;
46455;SDS011;64052;47.466;9.094;2023-04-24T14:14:21;3.17;;;1.92;;
46455;SDS011;64052;47.466;9.094;2023-04-24T14:19:22;1.63;;;1.52;;
46455;SDS011;64052;47.466;9.094;2023-04-24T14:24:24;1.88;;;1.55;;
46455;SDS011;64052;47.466;9.094;2023-04-24T14:29:25;2.88;;;2.20;;
46455;SDS011;64052;47.466;9.094;2023-04-24T14:34:27;1.92;;;1.70;;
46455;SDS011;64052;47.466;9.094;2023-04-24T14:39:28;2.30;;;1.65;;
46455;SDS011;64052;47.466;9.094;2023-04-24T14:44:30;2.63;;;1.92;;
46455;SDS011;64052;47.466;9.094;2023-04-24T14:49:31;3.92;;;3.13;;
46455;SDS011;64052;47.466;9.094;2023-04-24T14:54:33;2.22;;;2.03;;
46455;SDS011;64052;47.466;9.094;2023-04-24T14:59:34;2.22;;;2.03;;
46455;SDS011;64052;47.466;9.094;2023-04-24T15:04:36;2.25;;;2.00;;
46455;SDS011;64052;47.466;9.094;2023-04-24T15:09:38;2.40;;;2.10;;
46455;SDS011;64052;47.466;9.094;2023-04-24T15:14:39;2.17;;;1.98;;
46455;SDS011;64052;47.466;9.094;2023-04-24T15:19:41;3.72;;;2.00;;
46455;SDS011;64052;47.466;9.094;2023-04-24T15:24:42;2.88;;;2.30;;
46455;SDS011;64052;47.466;9.094;2023-04-24T15:29:44;3.72;;;3.35;;
46455;SDS011;64052;47.466;9.094;2023-04-24T15:34:45;2.33;;;2.10;;
46455;SDS011;64052;47.466;9.094;2023-04-24T15:39:49;2.50;;;2.30;;
46455;SDS011;64052;47.466;9.094;2023-04-24T15:44:51;2.40;;;2.20;;
46455;SDS011;64052;47.466;9.094;2023-04-24T15:49:53;8.00;;;3.83;;
46455;SDS011;64052;47.466;9.094;2023-04-24T15:54:54;4.55;;;3.30;;
46455;SDS011;64052;47.466;9.094;2023-04-24T15:59:56;2.72;;;2.53;;
46455;SDS011;64052;47.466;9.094;2023-04-24T16:04:57;2.78;;;2.25;;
46455;SDS011;64052;47.466;9.094;2023-04-24T16:09:59;2.67;;;2.47;;
46455;SDS011;64052;47.466;9.094;2023-04-24T16:15:01;2.97;;;2.35;;
46455;SDS011;64052;47.466;9.094;2023-04-24T16:20:03;2.88;;;2.10;;
46455;SDS011;64052;47.466;9.094;2023-04-24T16:25:05;2.15;;;1.95;;
46455;SDS011;64052;47.466;9.094;2023-04-24T16:30:08;3.05;;;1.90;;
46455;SDS011;64052;47.466;9.094;2023-04-24T16:35:10;2.67;;;2.15;;
46455;SDS011;64052;47.466;9.094;2023-04-24T16:40:11;3.95;;;2.17;;
46455;SDS011;64052;47.466;9.094;2023-04-24T16:45:13;3.63;;;2.05;;
46455;SDS011;64052;47.466;9.094;2023-04-24T16:50:14;2.03;;;1.63;;
46455;SDS011;64052;47.466;9.094;2023-04-24T16:55:16;3.05;;;1.90;;
46455;SDS011;64052;47.466;9.094;2023-04-24T17:00:18;3.90;;;2.33;;
46455;SDS011;64052;47.466;9.094;2023-04-24T17:05:19;4.60;;;2.40;;
46455;SDS011;64052;47.466;9.094;2023-04-24T17:10:21;3.10;;;2.47;;
46455;SDS011;64052;47.466;9.094;2023-04-24T17:15:22;4.40;;;2.75;;
46455;SDS011;64052;47.466;9.094;2023-04-24T17:20:24;3.53;;;2.30;;
46455;SDS011;64052;47.466;9.094;2023-04-24T17:25:29;2.83;;;2.45;;
46455;SDS011;64052;47.466;9.094;2023-04-24T17:30:30;3.97;;;3.42;;
46455;SDS011;64052;47.466;9.094;2023-04-24T17:35:32;3.20;;;2.90;;
46455;SDS011;64052;47.466;9.094;2023-04-24T17:40:33;3.60;;;3.33;;
46455;SDS011;64052;47.466;9.094;2023-04-24T17:45:35;3.53;;;3.10;;
46455;SDS011;64052;47.466;9.094;2023-04-24T17:50:36;2.70;;;2.20;;
46455;SDS011;64052;47.466;9.094;2023-04-24T17:55:38;3.58;;;3.28;;
46455;SDS011;64052;47.466;9.094;2023-04-24T18:00:41;3.45;;;2.90;;
46455;SDS011;64052;47.466;9.094;2023-04-24T18:05:43;3.72;;;3.08;;
46455;SDS011;64052;47.466;9.094;2023-04-24T18:10:44;2.85;;;1.90;;
46455;SDS011;64052;47.466;9.094;2023-04-24T18:15:46;2.40;;;2.20;;
46455;SDS011;64052;47.466;9.094;2023-04-24T18:20:47;3.25;;;2.90;;
46455;SDS011;64052;47.466;9.094;2023-04-24T18:25:49;3.58;;;3.22;;
46455;SDS011;64052;47.466;9.094;2023-04-24T18:30:50;2.50;;;2.30;;
46455;SDS011;64052;47.466;9.094;2023-04-24T18:35:52;4.32;;;3.08;;
46455;SDS011;64052;47.466;9.094;2023-04-24T18:40:53;3.33;;;3.03;;
46455;SDS011;64052;47.466;9.094;2023-04-24T18:45:55;3.33;;;2.35;;
46455;SDS011;64052;47.466;9.094;2023-04-24T18:50:56;3.15;;;2.33;;
46455;SDS011;64052;47.466;9.094;2023-04-24T18:55:58;7.45;;;5.35;;
46455;SDS011;64052;47.466;9.094;2023-04-24T19:00:59;3.53;;;2.95;;
46455;SDS011;64052;47.466;9.094;2023-04-24T19:06:01;2.78;;;2.38;;
46455;SDS011;64052;47.466;9.094;2023-04-24T19:11:03;2.65;;;2.40;;
46455;SDS011;64052;47.466;9.094;2023-04-24T19:16:05;2.75;;;2.55;;
46455;SDS011;64052;47.466;9.094;2023-04-24T19:21:06;3.83;;;2.78;;
46455;SDS011;64052;47.466;9.094;2023-04-24T19:26:08;3.75;;;3.45;;
46455;SDS011;64052;47.466;9.094;2023-04-24T19:31:10;4.20;;;3.05;;
46455;SDS011;64052;47.466;9.094;2023-04-24T19:36:11;3.65;;;3.13;;
46455;SDS011;64052;47.466;9.094;2023-04-24T19:41:12;2.85;;;2.58;;
46455;SDS011;64052;47.466;9.094;2023-04-24T19:46:14;3.70;;;3.10;;
46455;SDS011;64052;47.466;9.094;2023-04-24T19:51:15;3.38;;;2.88;;
46455;SDS011;64052;47.466;9.094;2023-04-24T19:56:17;4.05;;;3.10;;
46455;SDS011;64052;47.466;9.094;2023-04-24T20:01:18;5.75;;;2.90;;
46455;SDS011;64052;47.466;9.094;2023-04-24T20:06:20;4.82;;;3.17;;
46455;SDS011;64052;47.466;9.094;2023-04-24T20:11:21;3.63;;;2.75;;
46455;SDS011;64052;47.466;9.094;2023-04-24T20:16:23;4.10;;;2.80;;
46455;SDS011;64052;47.466;9.094;2023-04-24T20:21:24;3.03;;;2.75;;
46455;SDS011;64052;47.466;9.094;2023-04-24T20:26:26;3.58;;;2.63;;
46455;SDS011;64052;47.466;9.094;2023-04-24T20:31:27;3.97;;;3.38;;
46455;SDS011;64052;47.466;9.094;2023-04-24T20:36:29;3.17;;;2.88;;
46455;SDS011;64052;47.466;9.094;2023-04-24T20:41:31;2.60;;;2.40;;
46455;SDS011;64052;47.466;9.094;2023-04-24T20:46:33;4.55;;;3.40;;
46455;SDS011;64052;47.466;9.094;2023-04-24T20:51:35;6.03;;;3.55;;
46455;SDS011;64052;47.466;9.094;2023-04-24T20:56:36;3.42;;;3.10;;
46455;SDS011;64052;47.466;9.094;2023-04-24T21:01:38;5.60;;;3.50;;
46455;SDS011;64052;47.466;9.094;2023-04-24T21:06:39;4.32;;;3.33;;
46455;SDS011;64052;47.466;9.094;2023-04-24T21:11:41;3.53;;;2.97;;
46455;SDS011;64052;47.466;9.094;2023-04-24T21:16:42;3.20;;;2.55;;
46455;SDS011;64052;47.466;9.094;2023-04-24T21:21:44;4.00;;;3.10;;
46455;SDS011;64052;47.466;9.094;2023-04-24T21:26:47;3.88;;;3.35;;
46455;SDS011;64052;47.466;9.094;2023-04-24T21:31:49;4.22;;;3.55;;
46455;SDS011;64052;47.466;9.094;2023-04-24T21:36:52;5.38;;;3.25;;
46455;SDS011;64052;47.466;9.094;2023-04-24T21:41:54;5.38;;;3.58;;
46455;SDS011;64052;47.466;9.094;2023-04-24T21:46:55;4.80;;;3.40;;
46455;SDS011;64052;47.466;9.094;2023-04-24T21:51:57;4.72;;;3.75;;
46455;SDS011;64052;47.466;9.094;2023-04-24T21:56:58;4.10;;;3.63;;
46455;SDS011;64052;47.466;9.094;2023-04-24T22:02:00;5.47;;;3.55;;
46455;SDS011;64052;47.466;9.094;2023-04-24T22:07:02;4.47;;;3.42;;
46455;SDS011;64052;47.466;9.094;2023-04-24T22:12:03;3.58;;;3.28;;
46455;SDS011;64052;47.466;9.094;2023-04-24T22:17:05;3.92;;;3.45;;
46455;SDS011;64052;47.466;9.094;2023-04-24T22:22:07;4.03;;;3.30;;
46455;SDS011;64052;47.466;9.094;2023-04-24T22:27:08;3.65;;;3.08;;
46455;SDS011;64052;47.466;9.094;2023-04-24T22:32:10;5.70;;;4.22;;
46455;SDS011;64052;47.466;9.094;2023-04-24T22:37:11;4.38;;;3.28;;
46455;SDS011;64052;47.466;9.094;2023-04-24T22:42:13;3.53;;;3.22;;
46455;SDS011;64052;47.466;9.094;2023-04-24T22:47:14;4.30;;;3.90;;
46455;SDS011;64052;47.466;9.094;2023-04-24T22:52:16;4.07;;;3.50;;
46455;SDS011;64052;47.466;9.094;2023-04-24T22:57:17;6.90;;;4.85;;
46455;SDS011;64052;47.466;9.094;2023-04-24T23:02:19;4.93;;;3.67;;
46455;SDS011;64052;47.466;9.094;2023-04-24T23:07:22;4.38;;;3.97;;
46455;SDS011;64052;47.466;9.094;2023-04-24T23:12:23;6.50;;;4.10;;
46455;SDS011;64052;47.466;9.094;2023-04-24T23:17:24;3.80;;;3.40;;
46455;SDS011;64052;47.466;9.094;2023-04-24T23:22:26;4.82;;;3.58;;
46455;SDS011;64052;47.466;9.094;2023-04-24T23:27:28;6.43;;;4.50;;
46455;SDS011;64052;47.466;9.094;2023-04-24T23:32:29;3.10;;;2.83;;
46455;SDS011;64052;47.466;9.094;2023-04-24T23:37:31;5.18;;;4.05;;
46455;SDS011;64052;47.466;9.094;2023-04-24T23:42:32;5.15;;;3.65;;
46455;SDS011;64052;47.466;9.094;2023-04-24T23:47:34;7.55;;;4.15;;
46455;SDS011;64052;47.466;9.094;2023-04-24T23:52:36;4.22;;;3.83;;
46455;SDS011;64052;47.466;9.094;2023-04-24T23:57:37;4.90;;;3.72;;
